sensor_id;sensor_type;location;lat;lon;timestamp;P1;durP1;ratioP1;P2;durP2;ratioP2
41546;SDS011;27271;45.412;10.852;2022-10-17T00:01:04;95.97;;;35.70;;
41546;SDS011;27271;45.412;10.852;2022-10-17T00:04:31;102.63;;;36.47;;
41546;SDS011;27271;45.412;10.852;2022-10-17T00:08:07;98.57;;;36.45;;
41546;SDS011;27271;45.412;10.852;2022-10-17T00:15:58;96.07;;;35.58;;
41546;SDS011;27271;45.412;10.852;2022-10-17T00:23:34;97.13;;;36.55;;
41546;SDS011;27271;45.412;10.852;2022-10-17T00:31:24;95.53;;;34.80;;
41546;SDS011;27271;45.412;10.852;2022-10-17T00:34:47;100.55;;;35.83;;
41546;SDS011;27271;45.412;10.852;2022-10-17T00:38:09;91.78;;;36.85;;
41546;SDS011;27271;45.412;10.852;2022-10-17T00:41:32;100.13;;;36.30;;
41546;SDS011;27271;45.412;10.852;2022-10-17T00:45:00;97.00;;;36.95;;
41546;SDS011;27271;45.412;10.852;2022-10-17T00:48:44;93.32;;;34.60;;
41546;SDS011;27271;45.412;10.852;2022-10-17T00:52:27;94.97;;;36.30;;
41546;SDS011;27271;45.412;10.852;2022-10-17T00:55:50;94.70;;;36.72;;
41546;SDS011;27271;45.412;10.852;2022-10-17T00:59:14;88.00;;;34.75;;
41546;SDS011;27271;45.412;10.852;2022-10-17T01:02:38;99.78;;;35.97;;
41546;SDS011;27271;45.412;10.852;2022-10-17T01:06:00;90.75;;;34.72;;
41546;SDS011;27271;45.412;10.852;2022-10-17T01:09:23;91.35;;;32.75;;
41546;SDS011;27271;45.412;10.852;2022-10-17T01:13:00;105.78;;;38.05;;
41546;SDS011;27271;45.412;10.852;2022-10-17T01:24:17;92.85;;;35.55;;
41546;SDS011;27271;45.412;10.852;2022-10-17T01:31:32;85.90;;;33.75;;
41546;SDS011;27271;45.412;10.852;2022-10-17T01:35:09;94.22;;;34.22;;
41546;SDS011;27271;45.412;10.852;2022-10-17T01:38:42;100.95;;;34.90;;
41546;SDS011;27271;45.412;10.852;2022-10-17T01:45:58;97.38;;;33.58;;
41546;SDS011;27271;45.412;10.852;2022-10-17T01:49:27;100.43;;;35.53;;
41546;SDS011;27271;45.412;10.852;2022-10-17T01:52:52;91.78;;;34.50;;
41546;SDS011;27271;45.412;10.852;2022-10-17T01:56:19;93.13;;;34.72;;
41546;SDS011;27271;45.412;10.852;2022-10-17T01:59:46;89.95;;;35.67;;
41546;SDS011;27271;45.412;10.852;2022-10-17T02:03:16;98.47;;;39.03;;
41546;SDS011;27271;45.412;10.852;2022-10-17T02:06:40;101.07;;;35.95;;
41546;SDS011;27271;45.412;10.852;2022-10-17T02:10:05;93.45;;;34.00;;
41546;SDS011;27271;45.412;10.852;2022-10-17T02:20:45;92.63;;;34.58;;
41546;SDS011;27271;45.412;10.852;2022-10-17T02:24:19;92.38;;;32.33;;
41546;SDS011;27271;45.412;10.852;2022-10-17T02:27:48;104.63;;;34.67;;
41546;SDS011;27271;45.412;10.852;2022-10-17T02:31:39;95.18;;;34.92;;
41546;SDS011;27271;45.412;10.852;2022-10-17T02:35:04;98.05;;;34.88;;
41546;SDS011;27271;45.412;10.852;2022-10-17T02:38:30;100.80;;;35.35;;
41546;SDS011;27271;45.412;10.852;2022-10-17T02:41:55;93.22;;;34.88;;
41546;SDS011;27271;45.412;10.852;2022-10-17T02:45:22;102.20;;;35.22;;
41546;SDS011;27271;45.412;10.852;2022-10-17T02:48:53;96.07;;;34.63;;
41546;SDS011;27271;45.412;10.852;2022-10-17T02:56:29;92.30;;;33.10;;
41546;SDS011;27271;45.412;10.852;2022-10-17T02:59:56;84.88;;;32.22;;
41546;SDS011;27271;45.412;10.852;2022-10-17T03:03:24;95.53;;;35.38;;
41546;SDS011;27271;45.412;10.852;2022-10-17T03:06:47;91.03;;;33.22;;
41546;SDS011;27271;45.412;10.852;2022-10-17T03:10:11;104.20;;;35.83;;
41546;SDS011;27271;45.412;10.852;2022-10-17T03:13:33;89.38;;;35.42;;
41546;SDS011;27271;45.412;10.852;2022-10-17T03:17:00;80.55;;;32.50;;
41546;SDS011;27271;45.412;10.852;2022-10-17T03:20:23;91.22;;;32.78;;
41546;SDS011;27271;45.412;10.852;2022-10-17T03:23:45;88.45;;;31.33;;
41546;SDS011;27271;45.412;10.852;2022-10-17T03:27:08;85.18;;;33.58;;
41546;SDS011;27271;45.412;10.852;2022-10-17T03:30:31;96.43;;;34.42;;
41546;SDS011;27271;45.412;10.852;2022-10-17T03:33:54;87.75;;;32.75;;
41546;SDS011;27271;45.412;10.852;2022-10-17T03:37:16;93.47;;;34.35;;
41546;SDS011;27271;45.412;10.852;2022-10-17T03:40:38;89.72;;;31.70;;
41546;SDS011;27271;45.412;10.852;2022-10-17T03:44:00;91.63;;;32.25;;
41546;SDS011;27271;45.412;10.852;2022-10-17T03:47:22;93.88;;;34.97;;
41546;SDS011;27271;45.412;10.852;2022-10-17T03:50:44;87.53;;;31.70;;
41546;SDS011;27271;45.412;10.852;2022-10-17T03:54:07;88.80;;;32.58;;
41546;SDS011;27271;45.412;10.852;2022-10-17T03:57:30;85.78;;;32.38;;
41546;SDS011;27271;45.412;10.852;2022-10-17T04:00:52;83.38;;;31.15;;
41546;SDS011;27271;45.412;10.852;2022-10-17T04:04:15;82.60;;;32.88;;
41546;SDS011;27271;45.412;10.852;2022-10-17T04:07:38;82.70;;;32.60;;
41546;SDS011;27271;45.412;10.852;2022-10-17T04:11:04;77.35;;;30.88;;
41546;SDS011;27271;45.412;10.852;2022-10-17T04:14:27;82.85;;;32.15;;
41546;SDS011;27271;45.412;10.852;2022-10-17T04:17:50;86.18;;;32.03;;
41546;SDS011;27271;45.412;10.852;2022-10-17T04:21:12;80.50;;;32.47;;
41546;SDS011;27271;45.412;10.852;2022-10-17T04:24:35;84.93;;;30.70;;
41546;SDS011;27271;45.412;10.852;2022-10-17T04:28:03;87.47;;;31.38;;
41546;SDS011;27271;45.412;10.852;2022-10-17T04:31:25;88.20;;;32.55;;
41546;SDS011;27271;45.412;10.852;2022-10-17T04:35:10;77.05;;;29.15;;
41546;SDS011;27271;45.412;10.852;2022-10-17T04:38:37;92.25;;;31.48;;
41546;SDS011;27271;45.412;10.852;2022-10-17T04:41:59;73.72;;;29.58;;
41546;SDS011;27271;45.412;10.852;2022-10-17T04:45:21;75.05;;;27.13;;
41546;SDS011;27271;45.412;10.852;2022-10-17T04:48:49;91.07;;;31.92;;
41546;SDS011;27271;45.412;10.852;2022-10-17T04:52:11;86.97;;;32.38;;
41546;SDS011;27271;45.412;10.852;2022-10-17T04:55:36;80.45;;;31.48;;
41546;SDS011;27271;45.412;10.852;2022-10-17T04:58:59;83.88;;;30.58;;
41546;SDS011;27271;45.412;10.852;2022-10-17T05:02:22;81.75;;;30.95;;
41546;SDS011;27271;45.412;10.852;2022-10-17T05:20:27;88.45;;;30.70;;
41546;SDS011;27271;45.412;10.852;2022-10-17T05:24:13;96.00;;;33.35;;
41546;SDS011;27271;45.412;10.852;2022-10-17T05:28:24;96.70;;;33.67;;
41546;SDS011;27271;45.412;10.852;2022-10-17T05:32:35;85.68;;;32.78;;
41546;SDS011;27271;45.412;10.852;2022-10-17T05:36:46;95.03;;;33.03;;
41546;SDS011;27271;45.412;10.852;2022-10-17T05:40:57;97.28;;;32.17;;
41546;SDS011;27271;45.412;10.852;2022-10-17T05:45:10;91.93;;;33.05;;
41546;SDS011;27271;45.412;10.852;2022-10-17T05:49:21;93.43;;;34.28;;
41546;SDS011;27271;45.412;10.852;2022-10-17T05:53:35;93.30;;;32.72;;
41546;SDS011;27271;45.412;10.852;2022-10-17T05:57:48;89.00;;;32.65;;
41546;SDS011;27271;45.412;10.852;2022-10-17T06:02:00;93.40;;;33.40;;
41546;SDS011;27271;45.412;10.852;2022-10-17T06:06:11;91.13;;;34.05;;
41546;SDS011;27271;45.412;10.852;2022-10-17T06:10:23;92.43;;;34.30;;
41546;SDS011;27271;45.412;10.852;2022-10-17T06:14:35;101.88;;;33.65;;
41546;SDS011;27271;45.412;10.852;2022-10-17T06:18:47;104.25;;;33.67;;
41546;SDS011;27271;45.412;10.852;2022-10-17T06:22:58;96.20;;;34.55;;
41546;SDS011;27271;45.412;10.852;2022-10-17T06:27:09;96.10;;;34.47;;
41546;SDS011;27271;45.412;10.852;2022-10-17T06:31:20;111.68;;;37.10;;
41546;SDS011;27271;45.412;10.852;2022-10-17T06:35:31;104.80;;;36.10;;
41546;SDS011;27271;45.412;10.852;2022-10-17T06:39:42;112.93;;;37.95;;
41546;SDS011;27271;45.412;10.852;2022-10-17T06:43:53;110.88;;;39.92;;
41546;SDS011;27271;45.412;10.852;2022-10-17T06:48:07;115.13;;;37.95;;
41546;SDS011;27271;45.412;10.852;2022-10-17T06:52:18;108.20;;;38.00;;
41546;SDS011;27271;45.412;10.852;2022-10-17T06:56:30;99.97;;;37.35;;
41546;SDS011;27271;45.412;10.852;2022-10-17T07:00:41;106.07;;;38.25;;
41546;SDS011;27271;45.412;10.852;2022-10-17T07:04:52;103.47;;;38.30;;
41546;SDS011;27271;45.412;10.852;2022-10-17T07:09:08;94.50;;;36.90;;
41546;SDS011;27271;45.412;10.852;2022-10-17T07:13:20;76.13;;;32.70;;
41546;SDS011;27271;45.412;10.852;2022-10-17T07:17:32;75.57;;;33.00;;
41546;SDS011;27271;45.412;10.852;2022-10-17T07:21:43;81.10;;;32.88;;
41546;SDS011;27271;45.412;10.852;2022-10-17T07:26:00;69.65;;;31.38;;
41546;SDS011;27271;45.412;10.852;2022-10-17T07:58:28;51.00;;;25.88;;
41546;SDS011;27271;45.412;10.852;2022-10-17T08:01:54;49.17;;;24.88;;
41546;SDS011;27271;45.412;10.852;2022-10-17T08:05:18;49.58;;;25.80;;
41546;SDS011;27271;45.412;10.852;2022-10-17T08:08:40;48.25;;;24.88;;
41546;SDS011;27271;45.412;10.852;2022-10-17T08:12:02;52.63;;;26.25;;
41546;SDS011;27271;45.412;10.852;2022-10-17T08:15:25;49.60;;;23.92;;
41546;SDS011;27271;45.412;10.852;2022-10-17T08:18:52;50.25;;;26.88;;
41546;SDS011;27271;45.412;10.852;2022-10-17T08:22:14;58.97;;;28.10;;
41546;SDS011;27271;45.412;10.852;2022-10-17T08:25:37;57.03;;;28.27;;
41546;SDS011;27271;45.412;10.852;2022-10-17T08:29:00;56.60;;;28.33;;
41546;SDS011;27271;45.412;10.852;2022-10-17T08:32:23;60.40;;;28.50;;
41546;SDS011;27271;45.412;10.852;2022-10-17T08:35:47;55.72;;;29.55;;
41546;SDS011;27271;45.412;10.852;2022-10-17T08:39:09;60.00;;;28.00;;
41546;SDS011;27271;45.412;10.852;2022-10-17T08:46:06;54.28;;;27.00;;
41546;SDS011;27271;45.412;10.852;2022-10-17T08:56:42;56.55;;;27.67;;
41546;SDS011;27271;45.412;10.852;2022-10-17T09:00:14;61.37;;;29.97;;
41546;SDS011;27271;45.412;10.852;2022-10-17T09:03:44;53.80;;;26.83;;
41546;SDS011;27271;45.412;10.852;2022-10-17T09:18:17;56.15;;;28.20;;
41546;SDS011;27271;45.412;10.852;2022-10-17T09:21:47;57.15;;;29.60;;
41546;SDS011;27271;45.412;10.852;2022-10-17T09:25:20;68.30;;;29.67;;
41546;SDS011;27271;45.412;10.852;2022-10-17T09:28:42;63.78;;;29.90;;
41546;SDS011;27271;45.412;10.852;2022-10-17T09:32:13;58.08;;;29.65;;
41546;SDS011;27271;45.412;10.852;2022-10-17T09:35:41;58.17;;;27.85;;
41546;SDS011;27271;45.412;10.852;2022-10-17T09:39:15;59.17;;;28.70;;
41546;SDS011;27271;45.412;10.852;2022-10-17T09:42:39;61.55;;;29.13;;
41546;SDS011;27271;45.412;10.852;2022-10-17T09:46:09;58.63;;;27.48;;
41546;SDS011;27271;45.412;10.852;2022-10-17T09:49:54;59.17;;;28.73;;
41546;SDS011;27271;45.412;10.852;2022-10-17T09:53:18;63.90;;;29.13;;
41546;SDS011;27271;45.412;10.852;2022-10-17T09:57:06;58.70;;;28.27;;
41546;SDS011;27271;45.412;10.852;2022-10-17T10:00:30;57.10;;;27.67;;
41546;SDS011;27271;45.412;10.852;2022-10-17T10:04:10;63.65;;;26.55;;
41546;SDS011;27271;45.412;10.852;2022-10-17T10:07:37;58.85;;;27.95;;
41546;SDS011;27271;45.412;10.852;2022-10-17T10:11:01;55.03;;;28.35;;
41546;SDS011;27271;45.412;10.852;2022-10-17T10:14:34;62.60;;;29.40;;
41546;SDS011;27271;45.412;10.852;2022-10-17T10:17:57;60.28;;;28.45;;
41546;SDS011;27271;45.412;10.852;2022-10-17T10:21:24;52.55;;;27.50;;
41546;SDS011;27271;45.412;10.852;2022-10-17T10:28:32;59.58;;;27.63;;
41546;SDS011;27271;45.412;10.852;2022-10-17T10:32:42;54.83;;;26.27;;
41546;SDS011;27271;45.412;10.852;2022-10-17T10:35:43;58.95;;;26.75;;
41546;SDS011;27271;45.412;10.852;2022-10-17T10:39:24;50.92;;;25.58;;
41546;SDS011;27271;45.412;10.852;2022-10-17T10:42:52;51.75;;;27.05;;
41546;SDS011;27271;45.412;10.852;2022-10-17T10:46:24;55.60;;;25.90;;
41546;SDS011;27271;45.412;10.852;2022-10-17T10:49:52;53.55;;;26.88;;
41546;SDS011;27271;45.412;10.852;2022-10-17T10:53:46;53.40;;;26.55;;
41546;SDS011;27271;45.412;10.852;2022-10-17T10:57:17;50.42;;;26.08;;
41546;SDS011;27271;45.412;10.852;2022-10-17T11:00:41;55.03;;;27.40;;
41546;SDS011;27271;45.412;10.852;2022-10-17T11:07:43;56.63;;;26.92;;
41546;SDS011;27271;45.412;10.852;2022-10-17T11:11:15;53.20;;;25.58;;
41546;SDS011;27271;45.412;10.852;2022-10-17T11:14:41;48.63;;;27.65;;
41546;SDS011;27271;45.412;10.852;2022-10-17T11:21:56;56.05;;;25.42;;
41546;SDS011;27271;45.412;10.852;2022-10-17T11:25:47;50.95;;;25.85;;
41546;SDS011;27271;45.412;10.852;2022-10-17T11:29:18;52.25;;;25.48;;
41546;SDS011;27271;45.412;10.852;2022-10-17T11:32:45;49.92;;;25.98;;
41546;SDS011;27271;45.412;10.852;2022-10-17T11:36:17;52.75;;;26.10;;
41546;SDS011;27271;45.412;10.852;2022-10-17T11:39:44;53.97;;;26.13;;
41546;SDS011;27271;45.412;10.852;2022-10-17T11:43:26;51.58;;;25.77;;
41546;SDS011;27271;45.412;10.852;2022-10-17T11:46:56;50.60;;;25.13;;
41546;SDS011;27271;45.412;10.852;2022-10-17T11:50:26;48.15;;;25.98;;
41546;SDS011;27271;45.412;10.852;2022-10-17T12:01:56;49.80;;;25.35;;
41546;SDS011;27271;45.412;10.852;2022-10-17T12:05:38;52.60;;;26.52;;
41546;SDS011;27271;45.412;10.852;2022-10-17T12:09:17;51.75;;;26.15;;
41546;SDS011;27271;45.412;10.852;2022-10-17T12:12:52;50.95;;;26.70;;
41546;SDS011;27271;45.412;10.852;2022-10-17T12:19:41;48.55;;;25.77;;
41546;SDS011;27271;45.412;10.852;2022-10-17T12:26:31;49.97;;;25.92;;
41546;SDS011;27271;45.412;10.852;2022-10-17T12:30:02;53.30;;;25.75;;
41546;SDS011;27271;45.412;10.852;2022-10-17T12:33:38;56.92;;;26.25;;
41546;SDS011;27271;45.412;10.852;2022-10-17T12:41:11;47.58;;;24.20;;
41546;SDS011;27271;45.412;10.852;2022-10-17T12:44:34;45.78;;;25.58;;
41546;SDS011;27271;45.412;10.852;2022-10-17T12:47:58;53.00;;;26.92;;
41546;SDS011;27271;45.412;10.852;2022-10-17T12:51:20;46.22;;;25.55;;
41546;SDS011;27271;45.412;10.852;2022-10-17T12:58:33;50.33;;;26.88;;
41546;SDS011;27271;45.412;10.852;2022-10-17T13:01:58;54.55;;;25.75;;
41546;SDS011;27271;45.412;10.852;2022-10-17T13:08:59;51.28;;;25.33;;
41546;SDS011;27271;45.412;10.852;2022-10-17T13:12:26;45.65;;;24.75;;
41546;SDS011;27271;45.412;10.852;2022-10-17T13:15:50;42.40;;;22.80;;
41546;SDS011;27271;45.412;10.852;2022-10-17T13:19:17;46.22;;;23.20;;
41546;SDS011;27271;45.412;10.852;2022-10-17T13:26:19;50.25;;;24.50;;
41546;SDS011;27271;45.412;10.852;2022-10-17T13:29:44;47.20;;;25.45;;
41546;SDS011;27271;45.412;10.852;2022-10-17T13:33:18;46.58;;;23.90;;
41546;SDS011;27271;45.412;10.852;2022-10-17T13:36:54;44.95;;;23.15;;
41546;SDS011;27271;45.412;10.852;2022-10-17T13:40:26;44.80;;;22.17;;
41546;SDS011;27271;45.412;10.852;2022-10-17T13:44:11;43.22;;;22.75;;
41546;SDS011;27271;45.412;10.852;2022-10-17T13:47:39;47.63;;;23.45;;
41546;SDS011;27271;45.412;10.852;2022-10-17T13:51:03;44.65;;;23.00;;
41546;SDS011;27271;45.412;10.852;2022-10-17T13:54:43;44.38;;;23.40;;
41546;SDS011;27271;45.412;10.852;2022-10-17T13:58:15;43.33;;;22.57;;
41546;SDS011;27271;45.412;10.852;2022-10-17T14:01:44;44.55;;;23.60;;
41546;SDS011;27271;45.412;10.852;2022-10-17T14:08:53;45.43;;;23.83;;
41546;SDS011;27271;45.412;10.852;2022-10-17T14:12:22;45.90;;;23.25;;
41546;SDS011;27271;45.412;10.852;2022-10-17T14:15:50;35.83;;;19.77;;
41546;SDS011;27271;45.412;10.852;2022-10-17T14:19:29;36.67;;;20.50;;
41546;SDS011;27271;45.412;10.852;2022-10-17T14:22:52;43.22;;;22.17;;
41546;SDS011;27271;45.412;10.852;2022-10-17T14:26:44;41.35;;;20.65;;
41546;SDS011;27271;45.412;10.852;2022-10-17T14:38:12;38.50;;;19.85;;
41546;SDS011;27271;45.412;10.852;2022-10-17T14:41:36;37.47;;;19.65;;
41546;SDS011;27271;45.412;10.852;2022-10-17T14:45:05;37.70;;;19.73;;
41546;SDS011;27271;45.412;10.852;2022-10-17T14:48:32;43.08;;;20.38;;
41546;SDS011;27271;45.412;10.852;2022-10-17T14:55:39;35.58;;;18.08;;
41546;SDS011;27271;45.412;10.852;2022-10-17T14:59:14;37.75;;;18.75;;
41546;SDS011;27271;45.412;10.852;2022-10-17T15:02:58;39.92;;;19.92;;
41546;SDS011;27271;45.412;10.852;2022-10-17T15:06:28;38.25;;;19.48;;
41546;SDS011;27271;45.412;10.852;2022-10-17T15:09:53;34.63;;;18.58;;
41546;SDS011;27271;45.412;10.852;2022-10-17T15:13:15;38.63;;;19.25;;
41546;SDS011;27271;45.412;10.852;2022-10-17T15:16:57;41.30;;;20.17;;
41546;SDS011;27271;45.412;10.852;2022-10-17T15:20:21;41.42;;;20.00;;
41546;SDS011;27271;45.412;10.852;2022-10-17T15:23:47;37.80;;;19.60;;
41546;SDS011;27271;45.412;10.852;2022-10-17T15:27:13;37.67;;;19.52;;
41546;SDS011;27271;45.412;10.852;2022-10-17T15:30:39;40.08;;;20.10;;
41546;SDS011;27271;45.412;10.852;2022-10-17T15:34:01;37.13;;;19.15;;
41546;SDS011;27271;45.412;10.852;2022-10-17T15:37:24;37.22;;;18.55;;
41546;SDS011;27271;45.412;10.852;2022-10-17T15:40:46;36.85;;;18.38;;
41546;SDS011;27271;45.412;10.852;2022-10-17T15:44:11;36.35;;;18.75;;
41546;SDS011;27271;45.412;10.852;2022-10-17T15:47:33;34.97;;;18.42;;
41546;SDS011;27271;45.412;10.852;2022-10-17T15:50:55;35.80;;;18.90;;
41546;SDS011;27271;45.412;10.852;2022-10-17T15:54:17;37.38;;;19.58;;
41546;SDS011;27271;45.412;10.852;2022-10-17T15:57:40;50.72;;;20.40;;
41546;SDS011;27271;45.412;10.852;2022-10-17T16:01:04;45.20;;;21.90;;
41546;SDS011;27271;45.412;10.852;2022-10-17T16:04:27;42.13;;;20.80;;
41546;SDS011;27271;45.412;10.852;2022-10-17T16:07:51;42.92;;;22.95;;
41546;SDS011;27271;45.412;10.852;2022-10-17T16:14:44;45.67;;;22.48;;
41546;SDS011;27271;45.412;10.852;2022-10-17T16:18:07;41.22;;;21.60;;
41546;SDS011;27271;45.412;10.852;2022-10-17T16:21:31;49.33;;;22.15;;
41546;SDS011;27271;45.412;10.852;2022-10-17T16:24:58;52.30;;;24.45;;
41546;SDS011;27271;45.412;10.852;2022-10-17T16:28:28;49.53;;;23.88;;
41546;SDS011;27271;45.412;10.852;2022-10-17T16:31:50;49.83;;;22.17;;
41546;SDS011;27271;45.412;10.852;2022-10-17T16:35:16;55.80;;;25.60;;
41546;SDS011;27271;45.412;10.852;2022-10-17T16:38:44;47.92;;;23.67;;
41546;SDS011;27271;45.412;10.852;2022-10-17T16:42:06;51.45;;;23.10;;
41546;SDS011;27271;45.412;10.852;2022-10-17T16:45:28;51.85;;;24.48;;
41546;SDS011;27271;45.412;10.852;2022-10-17T16:48:51;51.42;;;23.90;;
41546;SDS011;27271;45.412;10.852;2022-10-17T16:52:13;53.05;;;25.30;;
41546;SDS011;27271;45.412;10.852;2022-10-17T16:55:35;60.38;;;24.98;;
41546;SDS011;27271;45.412;10.852;2022-10-17T16:58:58;53.72;;;25.02;;
41546;SDS011;27271;45.412;10.852;2022-10-17T17:02:21;57.40;;;26.00;;
41546;SDS011;27271;45.412;10.852;2022-10-17T17:05:48;56.08;;;25.08;;
41546;SDS011;27271;45.412;10.852;2022-10-17T17:09:12;52.15;;;23.42;;
41546;SDS011;27271;45.412;10.852;2022-10-17T17:12:35;56.03;;;26.73;;
41546;SDS011;27271;45.412;10.852;2022-10-17T17:16:16;50.70;;;25.23;;
41546;SDS011;27271;45.412;10.852;2022-10-17T17:19:44;61.33;;;27.67;;
41546;SDS011;27271;45.412;10.852;2022-10-17T17:23:07;57.35;;;26.63;;
41546;SDS011;27271;45.412;10.852;2022-10-17T17:26:39;66.18;;;28.45;;
41546;SDS011;27271;45.412;10.852;2022-10-17T17:30:59;59.22;;;25.75;;
41546;SDS011;27271;45.412;10.852;2022-10-17T17:34:33;58.25;;;27.55;;
41546;SDS011;27271;45.412;10.852;2022-10-17T17:38:05;70.22;;;30.55;;
41546;SDS011;27271;45.412;10.852;2022-10-17T17:41:33;75.85;;;32.83;;
41546;SDS011;27271;45.412;10.852;2022-10-17T17:44:56;74.03;;;33.22;;
41546;SDS011;27271;45.412;10.852;2022-10-17T17:48:19;70.43;;;33.17;;
41546;SDS011;27271;45.412;10.852;2022-10-17T17:51:41;72.50;;;32.63;;
41546;SDS011;27271;45.412;10.852;2022-10-17T17:55:07;75.32;;;32.35;;
41546;SDS011;27271;45.412;10.852;2022-10-17T17:58:30;79.07;;;32.60;;
41546;SDS011;27271;45.412;10.852;2022-10-17T18:01:53;68.55;;;31.38;;
41546;SDS011;27271;45.412;10.852;2022-10-17T18:05:15;66.82;;;29.45;;
41546;SDS011;27271;45.412;10.852;2022-10-17T18:08:38;79.18;;;33.13;;
41546;SDS011;27271;45.412;10.852;2022-10-17T18:12:00;75.72;;;32.50;;
41546;SDS011;27271;45.412;10.852;2022-10-17T18:15:22;69.90;;;30.67;;
41546;SDS011;27271;45.412;10.852;2022-10-17T18:18:44;71.57;;;31.45;;
41546;SDS011;27271;45.412;10.852;2022-10-17T18:22:06;72.80;;;31.42;;
41546;SDS011;27271;45.412;10.852;2022-10-17T18:25:28;80.65;;;33.63;;
41546;SDS011;27271;45.412;10.852;2022-10-17T18:28:50;74.38;;;33.67;;
41546;SDS011;27271;45.412;10.852;2022-10-17T18:32:13;61.03;;;28.42;;
41546;SDS011;27271;45.412;10.852;2022-10-17T18:35:36;70.97;;;29.52;;
41546;SDS011;27271;45.412;10.852;2022-10-17T18:38:58;70.47;;;30.63;;
41546;SDS011;27271;45.412;10.852;2022-10-17T18:42:21;75.50;;;35.85;;
41546;SDS011;27271;45.412;10.852;2022-10-17T18:45:43;75.72;;;30.38;;
41546;SDS011;27271;45.412;10.852;2022-10-17T18:49:07;71.63;;;29.60;;
41546;SDS011;27271;45.412;10.852;2022-10-17T18:52:30;68.13;;;28.98;;
41546;SDS011;27271;45.412;10.852;2022-10-17T18:55:52;72.95;;;28.85;;
41546;SDS011;27271;45.412;10.852;2022-10-17T18:59:16;66.03;;;30.17;;
41546;SDS011;27271;45.412;10.852;2022-10-17T19:02:39;70.47;;;30.10;;
41546;SDS011;27271;45.412;10.852;2022-10-17T19:06:02;83.13;;;32.80;;
41546;SDS011;27271;45.412;10.852;2022-10-17T19:09:27;72.72;;;33.15;;
41546;SDS011;27271;45.412;10.852;2022-10-17T19:12:49;73.75;;;31.80;;
41546;SDS011;27271;45.412;10.852;2022-10-17T19:16:13;92.93;;;37.13;;
41546;SDS011;27271;45.412;10.852;2022-10-17T19:19:37;82.85;;;36.28;;
41546;SDS011;27271;45.412;10.852;2022-10-17T19:23:03;84.80;;;36.95;;
41546;SDS011;27271;45.412;10.852;2022-10-17T19:26:26;101.47;;;39.33;;
41546;SDS011;27271;45.412;10.852;2022-10-17T19:29:50;90.30;;;36.92;;
41546;SDS011;27271;45.412;10.852;2022-10-17T19:33:12;94.80;;;37.65;;
41546;SDS011;27271;45.412;10.852;2022-10-17T19:36:34;90.72;;;37.20;;
41546;SDS011;27271;45.412;10.852;2022-10-17T19:39:56;91.47;;;36.70;;
41546;SDS011;27271;45.412;10.852;2022-10-17T19:43:18;89.13;;;38.00;;
41546;SDS011;27271;45.412;10.852;2022-10-17T19:46:41;97.05;;;40.03;;
41546;SDS011;27271;45.412;10.852;2022-10-17T19:50:07;99.72;;;41.05;;
41546;SDS011;27271;45.412;10.852;2022-10-17T19:53:29;100.88;;;39.42;;
41546;SDS011;27271;45.412;10.852;2022-10-17T19:56:52;88.70;;;37.53;;
41546;SDS011;27271;45.412;10.852;2022-10-17T20:00:14;93.70;;;36.63;;
41546;SDS011;27271;45.412;10.852;2022-10-17T20:03:36;96.10;;;39.63;;
41546;SDS011;27271;45.412;10.852;2022-10-17T20:06:58;94.78;;;38.33;;
41546;SDS011;27271;45.412;10.852;2022-10-17T20:10:20;92.35;;;36.65;;
41546;SDS011;27271;45.412;10.852;2022-10-17T20:13:43;87.25;;;35.53;;
41546;SDS011;27271;45.412;10.852;2022-10-17T20:17:05;85.65;;;34.83;;
41546;SDS011;27271;45.412;10.852;2022-10-17T20:20:27;90.63;;;35.92;;
41546;SDS011;27271;45.412;10.852;2022-10-17T20:23:49;91.47;;;35.25;;
41546;SDS011;27271;45.412;10.852;2022-10-17T20:27:11;98.47;;;37.97;;
41546;SDS011;27271;45.412;10.852;2022-10-17T20:30:34;89.03;;;36.72;;
41546;SDS011;27271;45.412;10.852;2022-10-17T20:33:57;94.78;;;36.50;;
41546;SDS011;27271;45.412;10.852;2022-10-17T20:37:21;90.43;;;36.45;;
41546;SDS011;27271;45.412;10.852;2022-10-17T20:40:43;88.93;;;35.85;;
41546;SDS011;27271;45.412;10.852;2022-10-17T20:44:06;90.93;;;37.20;;
41546;SDS011;27271;45.412;10.852;2022-10-17T20:47:29;101.35;;;39.03;;
41546;SDS011;27271;45.412;10.852;2022-10-17T20:51:08;82.93;;;35.70;;
41546;SDS011;27271;45.412;10.852;2022-10-17T20:54:32;101.32;;;38.63;;
41546;SDS011;27271;45.412;10.852;2022-10-17T20:58:10;85.32;;;36.10;;
41546;SDS011;27271;45.412;10.852;2022-10-17T21:01:34;95.78;;;36.30;;
41546;SDS011;27271;45.412;10.852;2022-10-17T21:04:57;86.80;;;35.25;;
41546;SDS011;27271;45.412;10.852;2022-10-17T21:08:19;84.35;;;35.53;;
41546;SDS011;27271;45.412;10.852;2022-10-17T21:11:41;92.60;;;35.28;;
41546;SDS011;27271;45.412;10.852;2022-10-17T21:15:04;94.63;;;35.13;;
41546;SDS011;27271;45.412;10.852;2022-10-17T21:18:27;96.65;;;38.10;;
41546;SDS011;27271;45.412;10.852;2022-10-17T21:21:50;94.88;;;35.65;;
41546;SDS011;27271;45.412;10.852;2022-10-17T21:25:12;93.97;;;37.45;;
41546;SDS011;27271;45.412;10.852;2022-10-17T21:28:35;98.65;;;35.88;;
41546;SDS011;27271;45.412;10.852;2022-10-17T21:31:58;86.70;;;34.88;;
41546;SDS011;27271;45.412;10.852;2022-10-17T21:35:20;93.20;;;36.78;;
41546;SDS011;27271;45.412;10.852;2022-10-17T21:38:46;99.80;;;36.17;;
41546;SDS011;27271;45.412;10.852;2022-10-17T21:42:10;92.25;;;36.28;;
41546;SDS011;27271;45.412;10.852;2022-10-17T21:45:34;86.70;;;34.80;;
41546;SDS011;27271;45.412;10.852;2022-10-17T21:49:16;84.00;;;35.33;;
41546;SDS011;27271;45.412;10.852;2022-10-17T21:52:41;86.63;;;34.53;;
41546;SDS011;27271;45.412;10.852;2022-10-17T21:56:07;92.88;;;35.15;;
41546;SDS011;27271;45.412;10.852;2022-10-17T21:59:31;93.22;;;35.85;;
41546;SDS011;27271;45.412;10.852;2022-10-17T22:02:56;91.75;;;33.72;;
41546;SDS011;27271;45.412;10.852;2022-10-17T22:06:19;85.80;;;33.85;;
41546;SDS011;27271;45.412;10.852;2022-10-17T22:10:00;86.47;;;34.17;;
41546;SDS011;27271;45.412;10.852;2022-10-17T22:13:23;92.53;;;35.85;;
41546;SDS011;27271;45.412;10.852;2022-10-17T22:16:45;88.40;;;35.05;;
41546;SDS011;27271;45.412;10.852;2022-10-17T22:20:08;93.28;;;35.25;;
41546;SDS011;27271;45.412;10.852;2022-10-17T22:23:30;80.35;;;33.35;;
41546;SDS011;27271;45.412;10.852;2022-10-17T22:26:52;84.22;;;33.70;;
41546;SDS011;27271;45.412;10.852;2022-10-17T22:30:14;82.97;;;30.92;;
41546;SDS011;27271;45.412;10.852;2022-10-17T22:33:37;84.38;;;31.33;;
41546;SDS011;27271;45.412;10.852;2022-10-17T22:36:59;81.00;;;31.48;;
41546;SDS011;27271;45.412;10.852;2022-10-17T22:40:21;84.20;;;31.77;;
41546;SDS011;27271;45.412;10.852;2022-10-17T22:43:43;82.20;;;30.83;;
41546;SDS011;27271;45.412;10.852;2022-10-17T22:47:05;78.72;;;31.23;;
41546;SDS011;27271;45.412;10.852;2022-10-17T22:50:28;84.68;;;32.78;;
41546;SDS011;27271;45.412;10.852;2022-10-17T22:53:50;79.45;;;30.83;;
41546;SDS011;27271;45.412;10.852;2022-10-17T22:57:12;81.57;;;29.95;;